Time;durP1;ratioP1;P1;durP2;ratioP2;P2;SDS_P1;SDS_P2;PMS_P1;PMS_P2;Temp;Humidity;BMP_temperature;BMP_pressure;BME280_temperature;BME280_humidity;BME280_pressure;Samples;Min_cycle;Max_cycle;Signal;HPM_P1;HPM_P2
2022/06/03 00:03:03;;;;;;;4.65;2.88;;;;;;;14.85;55.99;102176.03;5152997;28;20420;-47
2022/06/03 00:06:13;;;;;;;7.95;3.40;;;;;;;14.78;55.89;102166.97;5156038;28;20397;-47
2022/06/03 00:09:12;;;;;;;8.77;3.60;;;;;;;14.85;55.82;102173.38;5153205;28;20544;-48
2022/06/03 00:12:11;;;;;;;6.35;3.22;;;;;;;14.73;55.71;102154.91;5152831;28;20428;-45
2022/06/03 00:15:03;;;;;;;6.97;3.33;;;;;;;14.84;55.71;102163.72;5157811;28;20836;-46
2022/06/03 00:18:03;;;;;;;6.28;3.55;;;;;;;14.81;55.72;102156.03;5136299;28;20454;-48
2022/06/03 00:21:02;;;;;;;4.60;3.03;;;;;;;14.79;55.70;102158.81;5164572;28;20413;-49
2022/06/03 00:24:04;;;;;;;7.28;3.22;;;;;;;14.76;55.75;102165.25;5165364;28;20421;-48
2022/06/03 00:27:04;;;;;;;4.40;2.85;;;;;;;14.69;55.74;102158.84;5167892;28;20419;-46
2022/06/03 00:29:58;;;;;;;5.78;2.90;;;;;;;14.74;55.59;102153.09;5166423;28;20805;-48
2022/06/03 00:33:12;;;;;;;6.13;3.03;;;;;;;14.68;55.50;102154.53;5162534;28;27266;-50
2022/06/03 00:36:00;;;;;;;5.78;2.90;;;;;;;14.66;55.56;102159.16;5162380;28;20503;-46
2022/06/03 00:38:54;;;;;;;5.40;2.65;;;;;;;14.52;55.63;102146.28;5166114;28;20433;-48
2022/06/03 00:41:41;;;;;;;5.47;2.50;;;;;;;14.42;55.47;102124.19;5164052;28;20512;-47
2022/06/03 00:44:50;;;;;;;7.40;2.42;;;;;;;14.59;55.32;102152.72;5161298;28;20436;-47
2022/06/03 00:47:56;;;;;;;6.45;2.30;;;;;;;14.58;55.15;102148.38;5165233;28;20440;-47
2022/06/03 00:51:05;;;;;;;3.50;2.50;;;;;;;14.57;55.15;102154.69;5165962;28;20512;-47
2022/06/03 00:54:22;;;;;;;6.45;2.35;;;;;;;14.51;55.06;102155.25;5165488;28;20421;-48
2022/06/03 00:57:33;;;;;;;4.25;2.53;;;;;;;14.47;55.14;102154.69;5165810;28;20441;-44
2022/06/03 01:00:18;;;;;;;6.43;3.20;;;;;;;14.46;55.08;102160.13;5163996;28;20825;-46
2022/06/03 01:03:09;;;;;;;5.75;3.05;;;;;;;14.44;54.96;102159.44;5140366;28;20422;-49
2022/06/03 01:06:05;;;;;;;6.13;3.42;;;;;;;14.37;54.88;102142.38;5162197;28;20452;-45
2022/06/03 01:08:53;;;;;;;4.43;3.00;;;;;;;14.40;54.98;102142.94;5166704;28;20401;-44
2022/06/03 01:12:03;;;;;;;9.02;3.72;;;;;;;14.37;55.07;102142.38;5165277;28;20417;-45
2022/06/03 01:15:03;;;;;;;5.30;3.13;;;;;;;14.34;55.10;102146.19;5158641;28;20939;-46
2022/06/03 01:17:46;;;;;;;4.37;3.30;;;;;;;14.30;55.25;102144.75;5163513;28;20411;-44
2022/06/03 01:20:33;;;;;;;4.18;3.20;;;;;;;14.23;55.26;102139.19;5163158;28;20421;-45
2022/06/03 01:23:46;;;;;;;6.68;3.40;;;;;;;14.17;55.29;102133.59;5156622;28;20836;-47
2022/06/03 01:26:56;;;;;;;8.50;3.63;;;;;;;14.18;55.51;102141.41;5152374;28;20549;-44
2022/06/03 01:29:43;;;;;;;5.03;3.63;;;;;;;14.16;55.47;102140.75;5140082;28;20441;-46
2022/06/03 01:33:00;;;;;;;6.65;3.88;;;;;;;14.16;55.43;102138.09;5156125;28;20516;-45
2022/06/03 01:36:08;;;;;;;4.67;3.33;;;;;;;14.14;55.45;102134.72;5154364;28;21103;-47
2022/06/03 01:39:05;;;;;;;8.00;3.63;;;;;;;14.11;55.58;102137.66;5155034;28;20918;-47
2022/06/03 01:42:32;;;;;;;6.57;4.00;;;;;;;14.07;55.60;102138.94;5149487;28;21187;-44
2022/06/03 01:45:42;;;;;;;6.60;3.90;;;;;;;14.03;55.65;102140.19;5148573;28;20414;-49
2022/06/03 01:48:45;;;;;;;5.32;3.78;;;;;;;13.94;55.91;102122.44;5146705;28;20464;-46
2022/06/03 01:51:54;;;;;;;6.10;3.87;;;;;;;13.81;56.04;102110.28;5147928;28;20423;-44
2022/06/03 01:54:55;;;;;;;6.07;3.50;;;;;;;13.83;56.10;102124.25;5148815;28;20827;-46
2022/06/03 01:58:00;;;;;;;9.18;3.67;;;;;;;13.48;56.39;102073.53;5155409;28;20511;-44
2022/06/03 02:00:35;;;;;;;6.13;4.07;;;;;;;13.79;56.34;102114.91;5155025;28;20503;-46
2022/06/03 02:03:43;;;;;;;6.78;4.18;;;;;;;13.78;56.24;102115.88;5155538;28;20412;-47
2022/06/03 02:11:06;;;;;;;5.80;3.67;;;;;;;13.77;56.37;102102.72;5084134;28;20480;-45
2022/06/03 02:14:02;;;;;;;8.65;4.55;;;;;;;13.73;56.54;102096.88;5078777;28;20469;-43
2022/06/03 02:17:29;;;;;;;6.85;4.25;;;;;;;13.68;56.51;102093.78;5136281;28;20428;-43
2022/06/03 02:20:47;;;;;;;6.37;4.07;;;;;;;13.48;56.92;102060.25;5097076;28;20504;-44
2022/06/03 02:24:05;;;;;;;7.43;4.45;;;;;;;13.67;56.91;102097.41;5166526;28;20641;-43
2022/06/03 02:27:12;;;;;;;9.60;4.07;;;;;;;13.65;56.83;102091.41;5162587;28;20483;-45
2022/06/03 02:30:33;;;;;;;9.73;4.35;;;;;;;13.66;56.93;102077.16;5159312;28;20905;-45
2022/06/03 02:34:02;;;;;;;7.22;3.65;;;;;;;13.68;56.93;102080.50;5120799;28;20441;-46
2022/06/03 02:37:22;;;;;;;6.35;4.10;;;;;;;13.71;56.97;102082.06;5084415;28;20511;-45
2022/06/03 02:40:42;;;;;;;7.07;4.00;;;;;;;13.69;56.98;102079.56;5159485;28;20413;-48
2022/06/03 02:44:14;;;;;;;9.07;4.27;;;;;;;13.70;57.08;102075.91;5147554;28;20522;-48
2022/06/03 02:47:42;;;;;;;3.80;3.45;;;;;;;13.68;56.94;102072.53;5144041;28;20412;-51
2022/06/03 02:50:53;;;;;;;9.43;4.05;;;;;;;13.61;56.92;102060.81;5155702;28;20459;-48
2022/06/03 02:54:30;;;;;;;8.20;3.85;;;;;;;13.75;57.03;102088.75;5156762;28;21163;-48
2022/06/03 02:57:35;;;;;;;8.30;4.20;;;;;;;13.79;57.03;102087.50;5115871;28;20433;-49
2022/06/03 03:00:19;;;;;;;7.10;4.33;;;;;;;13.79;56.92;102084.84;5153553;28;20421;-47
2022/06/03 03:03:30;;;;;;;11.93;5.13;;;;;;;13.77;57.11;102086.78;5147136;28;20621;-47
2022/06/03 03:06:36;;;;;;;6.60;4.00;;;;;;;13.77;57.32;102079.66;5134266;28;20757;-46
2022/06/03 03:09:39;;;;;;;5.53;4.10;;;;;;;13.77;57.09;102084.97;5134954;28;20406;-46
2022/06/03 03:12:59;;;;;;;8.73;4.60;;;;;;;13.64;57.07;102070.31;5162340;28;20418;-45
2022/06/03 03:16:13;;;;;;;9.13;4.60;;;;;;;13.70;57.29;102091.00;5141344;28;20414;-46
2022/06/03 03:19:23;;;;;;;5.80;4.05;;;;;;;13.67;57.30;102086.81;5112183;28;20510;-48
2022/06/03 03:22:38;;;;;;;6.68;4.13;;;;;;;13.68;57.40;102087.63;5156220;28;20408;-45
2022/06/03 03:25:45;;;;;;;9.15;4.47;;;;;;;13.70;57.39;102086.53;5141812;28;20503;-45
2022/06/03 03:29:06;;;;;;;6.20;4.50;;;;;;;13.48;57.35;102044.34;5112356;28;20439;-44
2022/06/03 03:32:12;;;;;;;6.20;4.68;;;;;;;13.63;57.57;102072.13;5134554;28;20415;-45
2022/06/03 03:35:27;;;;;;;7.85;4.53;;;;;;;13.61;57.52;102072.25;5140023;28;20491;-44
2022/06/03 03:38:48;;;;;;;10.63;4.53;;;;;;;13.61;57.68;102071.44;5149948;28;20547;-43
2022/06/03 03:41:51;;;;;;;10.52;5.47;;;;;;;13.62;57.72;102075.75;5156367;28;20852;-48
2022/06/03 03:45:13;;;;;;;6.65;4.38;;;;;;;13.63;57.86;102071.28;5154854;28;20457;-43
2022/06/03 03:48:45;;;;;;;10.20;5.10;;;;;;;13.56;57.83;102052.41;5148636;28;20418;-46
2022/06/03 03:51:55;;;;;;;6.05;4.35;;;;;;;13.61;57.97;102055.50;5150393;28;20417;-48
2022/06/03 03:55:21;;;;;;;6.53;4.47;;;;;;;13.36;57.79;102017.94;5157835;28;20434;-46
2022/06/03 03:58:39;;;;;;;11.73;5.40;;;;;;;13.64;58.17;102057.88;5155105;28;20452;-46
2022/06/03 04:02:10;;;;;;;9.05;4.65;;;;;;;13.68;57.93;102055.78;5159533;28;20415;-41
2022/06/03 04:05:20;;;;;;;8.95;4.10;;;;;;;13.72;57.97;102060.69;5151800;28;20421;-49
2022/06/03 04:08:35;;;;;;;10.30;4.30;;;;;;;13.72;58.07;102057.16;5155189;28;20496;-48
2022/06/03 04:11:40;;;;;;;8.48;4.55;;;;;;;13.59;57.96;102028.25;5143137;28;20865;-46
2022/06/03 04:15:03;;;;;;;7.32;4.50;;;;;;;13.61;57.99;102027.13;5151786;28;20519;-43
2022/06/03 04:18:09;;;;;;;8.15;4.97;;;;;;;13.81;57.96;102062.50;5144672;28;20887;-45
2022/06/03 04:21:22;;;;;;;8.40;4.43;;;;;;;13.86;57.85;102058.56;5152007;28;20765;-44
2022/06/03 04:24:51;;;;;;;7.07;4.30;;;;;;;13.79;57.82;102045.84;5155995;28;20924;-45
2022/06/03 04:28:10;;;;;;;8.27;5.10;;;;;;;13.84;57.79;102061.34;5157379;28;20871;-50
2022/06/03 04:31:23;;;;;;;6.78;3.95;;;;;;;13.89;57.85;102058.28;5154538;28;20926;-43
2022/06/03 04:34:41;;;;;;;7.88;5.00;;;;;;;13.82;57.78;102029.66;5145941;28;20507;-51
2022/06/03 04:38:23;;;;;;;7.95;4.70;;;;;;;13.86;57.88;102039.97;5149172;28;20419;-49
2022/06/03 04:41:57;;;;;;;9.03;5.40;;;;;;;13.82;57.93;102042.91;5091627;28;20439;-46
2022/06/03 04:45:29;;;;;;;9.65;6.25;;;;;;;13.78;57.74;102036.22;5156624;28;20504;-46
2022/06/03 04:48:53;;;;;;;8.80;4.82;;;;;;;13.80;57.87;102042.22;5153530;28;20432;-43
2022/06/03 04:52:28;;;;;;;7.22;4.88;;;;;;;13.83;57.81;102031.31;5154010;28;21038;-46
2022/06/03 04:56:00;;;;;;;11.70;6.25;;;;;;;13.87;57.96;102031.03;5154863;28;20507;-44
2022/06/03 04:59:09;;;;;;;7.78;5.00;;;;;;;13.96;57.70;102033.66;5125409;28;20422;-47
2022/06/03 05:02:46;;;;;;;11.55;5.30;;;;;;;14.06;57.74;102023.03;5154461;28;20453;-45
2022/06/03 05:06:24;;;;;;;7.27;5.13;;;;;;;14.11;57.84;102020.78;5154765;28;20496;-48
2022/06/03 05:10:05;;;;;;;7.28;5.22;;;;;;;14.73;57.19;102018.47;5156221;28;20429;-46
2022/06/03 05:13:50;;;;;;;7.25;5.10;;;;;;;17.04;54.93;102010.97;5156421;28;20409;-47
2022/06/03 05:17:19;;;;;;;9.77;3.92;;;;;;;18.99;53.20;102015.34;5164095;28;20421;-49
2022/06/03 05:20:25;;;;;;;9.20;3.40;;;;;;;20.29;51.97;102009.91;5163134;28;20452;-49
2022/06/03 05:23:38;;;;;;;8.50;3.33;;;;;;;21.36;50.87;102015.50;5165122;28;20511;-48
2022/06/03 05:26:46;;;;;;;4.95;2.90;;;;;;;22.48;49.37;102012.81;5164949;28;20424;-51
2022/06/03 05:29:54;;;;;;;5.47;3.08;;;;;;;22.96;48.67;102015.50;5145666;28;20424;-53
2022/06/03 05:33:23;;;;;;;4.35;2.95;;;;;;;23.77;47.35;102019.97;5165478;28;20458;-48
2022/06/03 05:36:53;;;;;;;6.80;2.50;;;;;;;24.09;46.27;102020.09;5150836;28;20409;-49
2022/06/03 05:40:14;;;;;;;4.90;2.47;;;;;;;24.14;45.83;102023.00;5164139;28;20407;-50
2022/06/03 05:44:01;;;;;;;5.27;2.83;;;;;;;24.80;44.61;102022.78;5153574;28;20485;-51
2022/06/03 05:46:46;;;;;;;3.65;2.38;;;;;;;25.18;43.83;102021.16;5161871;28;20941;-47
2022/06/03 05:49:38;;;;;;;6.50;2.53;;;;;;;25.74;42.98;102050.91;5162245;28;20488;-49
2022/06/03 05:52:37;;;;;;;5.20;2.50;;;;;;;26.01;42.15;102029.00;5175664;28;20434;-50
2022/06/03 05:55:27;;;;;;;8.18;2.53;;;;;;;25.97;42.20;102027.81;5162213;28;20409;-50
2022/06/03 05:58:22;;;;;;;6.63;2.90;;;;;;;26.05;41.63;102027.53;5164616;28;20467;-53
2022/06/03 06:01:33;;;;;;;4.78;2.47;;;;;;;25.84;41.70;102038.78;5160032;28;20405;-53
2022/06/03 06:04:17;;;;;;;4.35;2.38;;;;;;;25.77;41.29;102031.50;5162321;28;20412;-51
2022/06/03 06:07:06;;;;;;;6.80;3.05;;;;;;;25.81;40.98;102039.19;5162307;28;20413;-52
2022/06/03 06:09:52;;;;;;;5.20;2.83;;;;;;;25.87;40.38;102022.91;5168394;28;20422;-53
2022/06/03 06:12:47;;;;;;;6.13;3.03;;;;;;;26.02;40.13;102029.88;5162332;28;20787;-51
2022/06/03 06:15:56;;;;;;;3.22;2.45;;;;;;;26.72;39.12;102018.63;5165241;28;20822;-52
2022/06/03 06:18:42;;;;;;;6.15;2.22;;;;;;;26.62;39.05;102030.84;5164271;28;20512;-48
2022/06/03 06:22:07;;;;;;;3.85;1.92;;;;;;;26.52;38.96;102033.28;5166227;28;20415;-51
2022/06/03 06:24:56;;;;;;;4.27;1.93;;;;;;;26.99;38.42;102036.19;5162289;28;20505;-54
2022/06/03 06:28:03;;;;;;;3.35;2.30;;;;;;;27.62;37.74;102020.44;5163748;28;20409;-50
2022/06/03 06:31:16;;;;;;;4.15;2.17;;;;;;;27.40;37.71;102021.00;5159686;28;20444;-52
2022/06/03 06:34:39;;;;;;;4.40;2.30;;;;;;;27.26;37.79;102041.28;5165301;28;20537;-53
2022/06/03 06:37:51;;;;;;;7.25;2.38;;;;;;;27.48;37.56;102023.38;5167156;28;20408;-51
2022/06/03 06:40:38;;;;;;;4.55;2.10;;;;;;;27.84;37.16;102037.81;5166604;28;20491;-52
2022/06/03 06:43:31;;;;;;;3.70;2.10;;;;;;;28.16;36.79;102029.31;5163264;28;20417;-53
2022/06/03 06:46:15;;;;;;;4.93;2.40;;;;;;;28.46;36.44;102035.41;5158960;28;20418;-52
2022/06/03 06:49:06;;;;;;;5.15;2.53;;;;;;;27.91;36.75;102043.97;5162700;28;20407;-51
2022/06/03 06:52:41;;;;;;;3.97;2.50;;;;;;;27.35;37.09;102018.19;5161435;28;21235;-54
2022/06/03 06:55:20;;;;;;;3.88;2.35;;;;;;;26.73;37.65;102036.53;5114997;28;20476;-50
2022/06/03 06:57:56;;;;;;;6.27;2.30;;;;;;;26.57;37.66;102044.28;5153790;28;20868;-54
2022/06/03 07:01:30;;;;;;;5.15;2.65;;;;;;;26.73;37.47;102040.09;5158574;28;20484;-53
2022/06/03 07:04:11;;;;;;;5.18;2.20;;;;;;;26.54;37.43;102033.03;5163123;28;20413;-53
2022/06/03 07:06:46;;;;;;;4.33;2.40;;;;;;;26.51;37.53;102031.63;5164632;28;20411;-51
2022/06/03 07:09:40;;;;;;;4.18;2.65;;;;;;;26.45;37.49;102024.38;5157455;28;20788;-51
2022/06/03 07:12:15;;;;;;;3.58;2.20;;;;;;;26.51;37.38;102023.50;5145891;28;20500;-43
2022/06/03 07:14:58;;;;;;;6.85;2.80;;;;;;;26.78;36.93;102012.31;5164529;28;20427;-51
2022/06/03 07:20:51;;;;;;;3.15;2.28;;;;;;;27.27;36.57;101994.09;5164917;28;20417;-50
2022/06/03 07:23:32;;;;;;;7.30;2.65;;;;;;;27.23;36.51;102001.88;5162138;28;20790;-51
2022/06/03 07:26:11;;;;;;;3.90;2.40;;;;;;;27.34;36.57;102003.75;5162724;28;20413;-50
2022/06/03 07:28:49;;;;;;;3.20;2.30;;;;;;;27.48;36.51;101995.41;5158468;28;20526;-54
2022/06/03 07:31:29;;;;;;;5.65;2.47;;;;;;;27.69;36.25;101999.44;5170806;28;20486;-53
2022/06/03 07:34:08;;;;;;;4.97;2.72;;;;;;;27.57;36.17;101994.84;5161011;28;20504;-53
2022/06/03 07:36:57;;;;;;;5.30;2.88;;;;;;;27.02;36.76;102008.63;5160436;28;20433;-53
2022/06/03 07:39:51;;;;;;;3.72;2.63;;;;;;;26.33;37.39;102010.75;5160171;28;20868;-54
2022/06/03 07:42:43;;;;;;;7.60;2.90;;;;;;;25.23;38.15;101927.53;5163093;28;20448;-50
2022/06/03 07:45:37;;;;;;;3.75;2.70;;;;;;;25.42;38.49;102014.13;5158897;28;20425;-51
2022/06/03 07:48:16;;;;;;;4.03;2.50;;;;;;;25.11;38.64;102014.94;5162699;28;20401;-53
2022/06/03 07:50:55;;;;;;;4.43;2.90;;;;;;;25.00;38.71;102024.56;5164411;28;20417;-53
2022/06/03 07:53:41;;;;;;;5.05;3.00;;;;;;;25.14;38.54;102012.66;5170999;28;20776;-53
2022/06/03 07:56:19;;;;;;;6.38;2.80;;;;;;;25.16;38.43;101994.34;5169728;28;20412;-50
2022/06/03 07:58:57;;;;;;;6.90;2.63;;;;;;;24.88;38.45;101991.19;5170620;28;20929;-53
2022/06/03 08:01:34;;;;;;;5.85;2.50;;;;;;;24.89;38.63;102003.63;5167282;28;20427;-47
2022/06/03 08:04:08;;;;;;;5.32;2.65;;;;;;;24.87;38.55;102011.13;5173597;28;20423;-52
2022/06/03 08:12:30;;;;;;;5.10;2.10;;;;;;;24.84;38.25;102002.41;5171588;28;20468;-53
2022/06/03 08:15:15;;;;;;;8.35;2.63;;;;;;;24.65;38.50;102000.63;5172701;28;20920;-51
2022/06/03 08:17:50;;;;;;;4.70;3.00;;;;;;;24.47;38.50;102001.34;5152982;28;20417;-50
2022/06/03 08:20:26;;;;;;;8.88;2.83;;;;;;;24.53;38.39;102005.06;5172788;28;20519;-53
2022/06/03 08:22:58;;;;;;;5.53;2.85;;;;;;;24.24;38.54;101988.31;5163213;28;20583;-51
2022/06/03 08:25:42;;;;;;;4.88;2.75;;;;;;;23.90;38.83;101994.81;5162787;28;21602;-51
2022/06/03 08:28:21;;;;;;;5.40;3.20;;;;;;;23.62;38.91;102005.81;5161415;28;20499;-53
2022/06/03 08:30:57;;;;;;;4.47;3.33;;;;;;;23.56;38.89;101979.69;5164261;28;20449;-52
2022/06/03 08:33:35;;;;;;;5.85;2.92;;;;;;;23.27;38.76;101981.75;5162200;28;20468;-53
2022/06/03 08:36:11;;;;;;;4.55;2.70;;;;;;;23.18;39.00;101988.38;5151116;28;20485;-49
2022/06/03 08:38:49;;;;;;;5.77;2.50;;;;;;;22.93;39.14;101991.63;5148807;28;20514;-51
2022/06/03 08:41:41;;;;;;;5.22;2.60;;;;;;;22.89;39.15;101986.88;5146448;28;20434;-52
2022/06/03 08:44:42;;;;;;;6.00;2.92;;;;;;;23.00;38.91;101970.94;5144358;28;20819;-50
2022/06/03 08:47:21;;;;;;;5.43;3.10;;;;;;;23.16;38.80;101993.97;5137442;28;20509;-51
2022/06/03 08:50:01;;;;;;;6.33;3.10;;;;;;;23.09;38.79;101976.97;5141339;28;20509;-49
2022/06/03 08:52:53;;;;;;;5.43;3.47;;;;;;;22.86;39.00;101977.31;5142642;28;20492;-49
2022/06/03 08:55:40;;;;;;;5.78;3.40;;;;;;;22.71;39.18;101988.25;5139401;28;20430;-51
2022/06/03 08:58:37;;;;;;;5.18;3.15;;;;;;;22.31;39.42;101957.66;5138208;28;20470;-50
2022/06/03 09:01:22;;;;;;;7.88;3.17;;;;;;;22.44;39.35;101979.25;5128528;28;20430;-48
2022/06/03 09:04:23;;;;;;;5.68;3.35;;;;;;;22.44;39.23;101960.41;5137292;28;20411;-52
2022/06/03 09:07:05;;;;;;;9.00;3.47;;;;;;;22.36;39.21;101949.81;5126903;28;20748;-47
2022/06/03 09:09:47;;;;;;;8.30;3.63;;;;;;;22.41;39.25;101941.97;5139166;28;20434;-52
2022/06/03 09:12:36;;;;;;;9.07;3.75;;;;;;;22.52;39.27;101954.84;5138928;28;20448;-50
2022/06/03 09:15:19;;;;;;;5.63;3.37;;;;;;;22.39;39.22;101948.56;5138537;28;20491;-47
2022/06/03 09:17:57;;;;;;;4.13;3.20;;;;;;;22.25;39.45;101945.00;5137297;28;20437;-47
2022/06/03 09:20:35;;;;;;;5.93;3.23;;;;;;;22.30;39.75;101962.22;5141316;28;20431;-52
2022/06/03 09:23:12;;;;;;;5.30;3.80;;;;;;;22.24;39.80;101959.50;5137476;28;20471;-49
2022/06/03 09:25:48;;;;;;;4.30;3.40;;;;;;;22.28;39.80;101960.75;5134392;28;20473;-49
2022/06/03 09:28:25;;;;;;;6.85;3.88;;;;;;;22.15;39.87;101941.84;5139550;28;20784;-46
2022/06/03 09:31:03;;;;;;;9.43;4.13;;;;;;;22.08;39.78;101942.63;5140329;28;20472;-48
2022/06/03 09:33:37;;;;;;;6.30;3.83;;;;;;;22.20;39.94;101956.34;5136743;28;20484;-54
2022/06/03 09:36:14;;;;;;;7.28;3.70;;;;;;;22.32;39.91;101962.00;5174092;28;20889;-49
2022/06/03 09:38:52;;;;;;;6.00;3.80;;;;;;;22.37;39.73;101946.09;5172174;28;20466;-46
2022/06/03 09:41:28;;;;;;;6.07;3.83;;;;;;;22.37;39.91;101956.88;5174078;28;20423;-49
2022/06/03 09:44:03;;;;;;;6.22;3.40;;;;;;;22.18;40.19;101957.59;5175585;28;20424;-46
2022/06/03 09:46:38;;;;;;;6.85;4.25;;;;;;;22.19;40.20;101970.03;5174189;28;20423;-46
2022/06/03 09:49:11;;;;;;;6.50;3.77;;;;;;;22.20;40.12;101968.97;5173279;28;20547;-49
2022/06/03 09:51:59;;;;;;;9.63;5.10;;;;;;;22.31;39.91;101965.75;5153799;28;20602;-51
2022/06/03 09:54:35;;;;;;;5.60;3.65;;;;;;;22.10;40.00;101935.16;5174378;28;20462;-47
2022/06/03 09:57:13;;;;;;;6.68;4.10;;;;;;;22.53;39.83;101978.03;5176970;28;20460;-47
2022/06/03 09:59:57;;;;;;;8.85;3.92;;;;;;;22.68;39.53;101979.75;5177309;28;20452;-47
2022/06/03 10:02:32;;;;;;;5.15;4.30;;;;;;;22.62;39.66;101977.88;5175943;28;20511;-47
2022/06/03 10:05:07;;;;;;;8.65;4.03;;;;;;;22.53;39.93;101971.81;5174489;28;20966;-47
2022/06/03 10:07:42;;;;;;;6.95;3.53;;;;;;;22.63;39.70;101977.66;5177636;28;20874;-46
2022/06/03 10:13:11;;;;;;;8.15;4.50;;;;;;;22.77;39.50;101962.38;5174106;28;20988;-47
2022/06/03 10:15:53;;;;;;;7.72;4.30;;;;;;;22.83;39.46;101958.06;5169301;28;20533;-42
2022/06/03 10:18:33;;;;;;;5.55;3.90;;;;;;;22.95;39.20;101954.59;5172938;28;20987;-46
2022/06/03 10:21:31;;;;;;;9.27;4.90;;;;;;;23.05;39.13;101959.56;5181069;28;20428;-47
2022/06/03 10:24:07;;;;;;;7.55;4.55;;;;;;;23.23;39.12;101967.88;5179056;28;21793;-45
2022/06/03 10:26:49;;;;;;;8.75;4.00;;;;;;;23.38;38.94;101959.59;5176936;28;20429;-47
2022/06/03 10:29:25;;;;;;;5.90;4.65;;;;;;;23.39;38.88;101950.47;5175430;28;21925;-45
2022/06/03 10:32:03;;;;;;;7.60;3.75;;;;;;;23.33;38.81;101947.78;5176546;28;20482;-48
2022/06/03 10:34:40;;;;;;;7.22;4.35;;;;;;;23.26;38.85;101931.59;5174865;28;20448;-48
2022/06/03 10:37:20;;;;;;;7.17;3.60;;;;;;;23.27;38.95;101935.94;5179904;28;20529;-47
2022/06/03 10:39:56;;;;;;;7.95;3.97;;;;;;;23.40;38.90;101948.59;5173988;28;20603;-48
2022/06/03 10:42:30;;;;;;;6.30;3.88;;;;;;;23.06;38.79;101901.13;5171993;28;20504;-49
2022/06/03 10:45:03;;;;;;;6.05;3.70;;;;;;;23.24;38.95;101925.56;5171204;28;20460;-46
2022/06/03 10:47:40;;;;;;;6.28;4.05;;;;;;;23.12;38.74;101902.97;5177338;28;20450;-49
2022/06/03 10:50:28;;;;;;;8.38;4.20;;;;;;;23.34;38.83;101933.25;5173425;28;20422;-47
2022/06/03 11:02:02;;;;;;;6.20;3.47;;;;;;;23.67;38.45;101925.94;5164485;28;20438;-46
2022/06/03 11:04:37;;;;;;;4.28;3.03;;;;;;;23.91;38.14;101924.47;5171275;28;21008;-51
2022/06/03 11:07:27;;;;;;;6.70;3.72;;;;;;;23.95;38.09;101900.59;5171679;28;20432;-47
2022/06/03 11:10:02;;;;;;;6.43;3.67;;;;;;;24.08;38.04;101921.31;5169404;28;20526;-49
2022/06/03 11:12:35;;;;;;;8.20;3.78;;;;;;;24.22;37.90;101913.97;5169245;28;20530;-51
2022/06/03 11:15:31;;;;;;;7.88;3.85;;;;;;;24.34;37.78;101915.81;5168611;28;20546;-47
2022/06/03 11:18:16;;;;;;;5.72;3.13;;;;;;;24.17;37.88;101910.06;5173194;28;20438;-48
2022/06/03 11:20:52;;;;;;;5.07;3.00;;;;;;;24.05;37.96;101902.84;5166484;28;20517;-49
2022/06/03 11:23:26;;;;;;;7.25;2.83;;;;;;;24.22;37.57;101905.88;5173090;28;20524;-50
2022/06/03 11:26:01;;;;;;;5.18;3.28;;;;;;;24.29;37.59;101899.41;5175764;28;20434;-45
2022/06/03 11:28:38;;;;;;;5.82;2.83;;;;;;;24.44;37.49;101898.34;5174712;28;20429;-50
2022/06/03 11:31:17;;;;;;;6.78;3.20;;;;;;;24.46;37.34;101897.06;5172341;28;20899;-51
2022/06/03 11:33:59;;;;;;;3.38;2.85;;;;;;;24.54;37.24;101899.53;5171689;28;20447;-50
2022/06/03 11:36:36;;;;;;;5.40;2.80;;;;;;;24.45;37.18;101890.00;5170711;28;20929;-47
2022/06/03 11:39:15;;;;;;;9.82;3.17;;;;;;;24.41;37.06;101885.25;5171952;28;20429;-52
2022/06/03 11:41:54;;;;;;;6.20;3.00;;;;;;;24.56;36.99;101902.03;5136568;28;20501;-46
2022/06/03 11:44:36;;;;;;;4.93;2.58;;;;;;;24.56;37.01;101894.75;5172337;28;20900;-48
2022/06/03 11:47:13;;;;;;;6.35;2.97;;;;;;;24.65;36.84;101887.19;5171208;28;20673;-48
2022/06/03 11:49:46;;;;;;;5.50;2.67;;;;;;;24.76;36.71;101896.47;5173081;28;20413;-51
2022/06/03 11:52:21;;;;;;;6.45;2.88;;;;;;;24.98;36.57;101891.53;5173976;28;20430;-50
2022/06/03 11:54:56;;;;;;;4.18;2.55;;;;;;;25.12;36.38;101895.78;5172658;28;20536;-49
2022/06/03 11:57:30;;;;;;;6.33;2.63;;;;;;;25.11;36.25;101893.28;5160653;28;20675;-46
2022/06/03 12:00:07;;;;;;;6.55;3.10;;;;;;;25.11;36.38;101918.44;5169632;28;20903;-48
2022/06/03 12:02:56;;;;;;;5.13;2.83;;;;;;;25.10;36.19;101934.91;5170494;28;20574;-51
2022/06/03 12:05:34;;;;;;;5.20;2.60;;;;;;;24.94;36.23;101898.44;5173387;28;20996;-48
2022/06/03 12:08:17;;;;;;;4.03;2.60;;;;;;;24.71;36.33;101905.22;5171272;28;20431;-48
2022/06/03 12:10:58;;;;;;;3.05;2.17;;;;;;;24.68;36.43;101911.06;5170699;28;20533;-49
2022/06/03 12:13:32;;;;;;;4.32;2.40;;;;;;;24.54;36.42;101887.91;5169818;28;20431;-49
2022/06/03 12:16:10;;;;;;;5.10;2.40;;;;;;;24.56;35.97;101880.41;5173596;28;20497;-49
2022/06/03 12:19:02;;;;;;;3.17;2.00;;;;;;;24.06;36.09;101801.94;5143864;28;20416;-48
2022/06/03 12:21:57;;;;;;;3.65;2.30;;;;;;;24.89;36.00;101901.78;5172388;28;20414;-50
2022/06/03 12:24:57;;;;;;;4.55;2.58;;;;;;;24.95;35.81;101910.88;5173255;28;20420;-53
2022/06/03 12:27:35;;;;;;;6.73;2.33;;;;;;;24.90;35.86;101908.00;5123579;28;20435;-49
2022/06/03 12:30:44;;;;;;;6.28;2.38;;;;;;;24.77;35.85;101876.50;5169473;28;20971;-48
2022/06/03 12:33:30;;;;;;;3.10;2.13;;;;;;;24.98;35.80;101915.84;5146143;28;20427;-50
2022/06/03 12:36:08;;;;;;;5.68;2.25;;;;;;;25.06;35.52;101912.88;5172650;28;20784;-49
2022/06/03 12:39:13;;;;;;;4.50;2.03;;;;;;;25.14;35.31;101898.28;5171930;28;20459;-50
2022/06/03 12:42:16;;;;;;;6.70;2.25;;;;;;;25.28;35.10;101892.56;5163295;28;20410;-51
2022/06/03 12:45:12;;;;;;;4.72;2.05;;;;;;;25.27;35.08;101900.88;5166646;28;20449;-52
2022/06/03 12:47:50;;;;;;;4.53;2.17;;;;;;;25.16;35.17;101897.03;5169989;28;20790;-51
2022/06/03 12:50:57;;;;;;;4.95;2.10;;;;;;;25.20;35.12;101903.63;5147910;28;20441;-51
2022/06/03 12:53:41;;;;;;;3.83;2.00;;;;;;;25.20;35.06;101909.03;5170231;28;20510;-50
2022/06/03 12:56:39;;;;;;;6.35;1.95;;;;;;;25.06;35.01;101869.63;5170483;28;20431;-49
2022/06/03 12:59:27;;;;;;;4.00;2.20;;;;;;;25.51;34.64;101896.47;5167388;28;21010;-49
2022/06/03 13:02:08;;;;;;;7.70;2.17;;;;;;;25.72;34.38;101896.06;5165213;28;20988;-48
2022/06/03 13:04:47;;;;;;;4.03;2.00;;;;;;;25.64;34.27;101877.44;5175431;28;20422;-52
2022/06/03 13:07:55;;;;;;;4.88;1.67;;;;;;;25.87;34.35;101903.84;5168729;28;20420;-52
2022/06/03 13:10:58;;;;;;;5.70;1.80;;;;;;;26.05;34.11;101916.53;5168204;28;20605;-49
2022/06/03 13:13:52;;;;;;;2.40;1.80;;;;;;;25.86;34.01;101904.91;5163554;28;20430;-50
2022/06/03 13:16:46;;;;;;;4.03;1.70;;;;;;;25.72;34.14;101906.88;5170248;28;20422;-50
2022/06/03 13:19:57;;;;;;;3.25;1.77;;;;;;;25.69;33.96;101869.44;5166981;28;21301;-52
2022/06/03 13:22:51;;;;;;;6.30;1.95;;;;;;;26.12;33.70;101914.56;5170317;28;20791;-52
2022/06/03 13:25:43;;;;;;;5.05;1.80;;;;;;;26.19;33.69;101909.88;5170483;28;20421;-49
2022/06/03 13:28:37;;;;;;;5.85;2.15;;;;;;;26.16;33.67;101920.34;5168602;28;20820;-50
2022/06/03 13:31:21;;;;;;;4.70;1.98;;;;;;;26.07;33.63;101903.56;5167213;28;20545;-49
2022/06/03 13:34:16;;;;;;;2.65;1.75;;;;;;;25.76;33.69;101874.78;5167615;28;21030;-51
2022/06/03 13:37:16;;;;;;;3.35;1.70;;;;;;;25.91;33.57;101901.50;5168090;28;20500;-51
2022/06/03 13:40:11;;;;;;;2.40;1.70;;;;;;;25.80;33.59;101891.38;5164532;28;20427;-49
2022/06/03 13:43:10;;;;;;;4.53;1.98;;;;;;;25.50;33.90;101903.78;5172871;28;20835;-48
2022/06/03 13:46:06;;;;;;;3.75;1.70;;;;;;;25.27;33.97;101888.19;5167347;28;20507;-50
2022/06/03 13:48:53;;;;;;;4.78;1.73;;;;;;;25.21;34.08;101883.69;5169709;28;20427;-49
2022/06/03 13:51:47;;;;;;;3.38;1.63;;;;;;;24.84;33.84;101807.88;5154207;28;20528;-51
2022/06/03 13:54:31;;;;;;;4.00;2.00;;;;;;;25.61;33.57;101894.09;5163116;28;20502;-50
2022/06/03 13:57:17;;;;;;;6.90;1.60;;;;;;;25.76;33.47;101883.72;5167702;28;21889;-48
2022/06/03 13:59:50;;;;;;;4.07;1.30;;;;;;;25.77;33.49;101896.22;5166830;28;20520;-53
2022/06/03 14:02:34;;;;;;;2.10;1.57;;;;;;;25.61;33.62;101877.03;5177638;28;20424;-48